sensor_id;sensor_type;location;lat;lon;timestamp;pressure;altitude;pressure_sealevel;temperature;humidity
67038;BME280;53940;53.204;6.590;2022-11-15T00:01:33;100797.16;;;20.91;45.62
67038;BME280;53940;53.204;6.590;2022-11-15T00:04:36;100795.44;;;20.90;45.73
67038;BME280;53940;53.204;6.590;2022-11-15T00:07:37;100795.44;;;20.90;45.63
67038;BME280;53940;53.204;6.590;2022-11-15T00:10:37;100795.44;;;20.90;45.59
67038;BME280;53940;53.204;6.590;2022-11-15T00:13:38;100794.75;;;20.87;45.51
67038;BME280;53940;53.204;6.590;2022-11-15T00:16:39;100794.75;;;20.87;45.77
67038;BME280;53940;53.204;6.590;2022-11-15T00:19:39;100783.22;;;20.87;45.56
67038;BME280;53940;53.204;6.590;2022-11-15T00:22:39;100785.03;;;20.86;45.38
67038;BME280;53940;53.204;6.590;2022-11-15T00:25:40;100787.72;;;20.86;45.29
67038;BME280;53940;53.204;6.590;2022-11-15T00:28:41;100790.41;;;20.86;45.42
67038;BME280;53940;53.204;6.590;2022-11-15T00:31:41;100784.19;;;20.86;45.49
67038;BME280;53940;53.204;6.590;2022-11-15T00:34:42;100785.03;;;20.86;45.57
67038;BME280;53940;53.204;6.590;2022-11-15T00:37:42;100779.69;;;20.86;45.58
67038;BME280;53940;53.204;6.590;2022-11-15T00:40:43;100772.63;;;20.85;45.78
67038;BME280;53940;53.204;6.590;2022-11-15T00:43:43;100771.66;;;20.86;45.47
67038;BME280;53940;53.204;6.590;2022-11-15T00:46:43;100759.09;;;20.87;45.37
67038;BME280;53940;53.204;6.590;2022-11-15T00:49:43;100747.53;;;20.86;45.63
67038;BME280;53940;53.204;6.590;2022-11-15T00:52:44;100750.91;;;20.89;45.46
67038;BME280;53940;53.204;6.590;2022-11-15T00:55:46;100745.53;;;20.89;45.42
67038;BME280;53940;53.204;6.590;2022-11-15T00:58:46;100742.88;;;20.89;45.36
67038;BME280;53940;53.204;6.590;2022-11-15T01:01:47;100736.53;;;20.90;45.31
67038;BME280;53940;53.204;6.590;2022-11-15T01:04:47;100734.56;;;20.92;45.51
67038;BME280;53940;53.204;6.590;2022-11-15T01:07:54;100729.19;;;20.92;45.54
67038;BME280;53940;53.204;6.590;2022-11-15T01:11:00;100721.84;;;20.94;45.19
67038;BME280;53940;53.204;6.590;2022-11-15T01:14:01;100722.72;;;20.94;45.45
67038;BME280;53940;53.204;6.590;2022-11-15T01:17:01;100719.88;;;20.96;45.12
67038;BME280;53940;53.204;6.590;2022-11-15T01:20:02;100720.59;;;20.98;45.07
67038;BME280;53940;53.204;6.590;2022-11-15T01:23:02;100719.59;;;20.99;45.23
67038;BME280;53940;53.204;6.590;2022-11-15T01:26:05;100718.59;;;21.00;45.34
67038;BME280;53940;53.204;6.590;2022-11-15T01:29:06;100718.47;;;21.02;45.10
67038;BME280;53940;53.204;6.590;2022-11-15T01:32:06;100715.66;;;21.03;45.36
67038;BME280;53940;53.204;6.590;2022-11-15T01:35:07;100721.69;;;21.05;44.98
67038;BME280;53940;53.204;6.590;2022-11-15T01:38:08;100704.63;;;21.06;45.25
67038;BME280;53940;53.204;6.590;2022-11-15T01:41:20;100701.81;;;21.08;45.20
67038;BME280;53940;53.204;6.590;2022-11-15T01:44:44;100708.72;;;21.10;45.09
67038;BME280;53940;53.204;6.590;2022-11-15T01:47:51;100700.38;;;21.13;44.66
67038;BME280;53940;53.204;6.590;2022-11-15T01:50:52;100695.88;;;21.14;44.71
67038;BME280;53940;53.204;6.590;2022-11-15T01:53:55;100682.16;;;21.17;44.90
67038;BME280;53940;53.204;6.590;2022-11-15T01:57:04;100685.56;;;21.19;44.56
67038;BME280;53940;53.204;6.590;2022-11-15T02:00:07;100680.75;;;21.23;44.62
67038;BME280;53940;53.204;6.590;2022-11-15T02:03:08;100674.38;;;21.24;44.60
67038;BME280;53940;53.204;6.590;2022-11-15T02:06:08;100676.78;;;21.27;44.60
67038;BME280;53940;53.204;6.590;2022-11-15T02:09:10;100677.47;;;21.29;44.80
67038;BME280;53940;53.204;6.590;2022-11-15T02:12:13;100671.81;;;21.32;44.37
67038;BME280;53940;53.204;6.590;2022-11-15T02:15:15;100681.56;;;21.33;44.76
67038;BME280;53940;53.204;6.590;2022-11-15T02:18:26;100666.03;;;21.37;44.56
67038;BME280;53940;53.204;6.590;2022-11-15T02:27:57;100671.47;;;21.45;44.50
67038;BME280;53940;53.204;6.590;2022-11-15T02:34:56;100661.97;;;21.51;44.17
67038;BME280;53940;53.204;6.590;2022-11-15T02:38:09;100662.69;;;21.53;44.15
67038;BME280;53940;53.204;6.590;2022-11-15T02:41:20;100659.69;;;21.56;44.27
67038;BME280;53940;53.204;6.590;2022-11-15T02:44:32;100661.91;;;21.61;43.98
67038;BME280;53940;53.204;6.590;2022-11-15T02:47:41;100656.41;;;21.62;44.21
67038;BME280;53940;53.204;6.590;2022-11-15T02:50:43;100657.13;;;21.64;43.88
67038;BME280;53940;53.204;6.590;2022-11-15T02:53:43;100659.50;;;21.67;44.01
67038;BME280;53940;53.204;6.590;2022-11-15T02:56:44;100662.03;;;21.69;43.85
67038;BME280;53940;53.204;6.590;2022-11-15T03:00:01;100664.59;;;21.71;44.11
67038;BME280;53940;53.204;6.590;2022-11-15T03:03:23;100659.06;;;21.72;44.01
67038;BME280;53940;53.204;6.590;2022-11-15T03:06:35;100653.41;;;21.75;43.82
67038;BME280;53940;53.204;6.590;2022-11-15T03:09:44;100647.91;;;21.77;44.16
67038;BME280;53940;53.204;6.590;2022-11-15T03:16:14;100637.72;;;21.80;43.95
67038;BME280;53940;53.204;6.590;2022-11-15T03:22:41;100641.06;;;21.83;43.66
67038;BME280;53940;53.204;6.590;2022-11-15T03:25:46;100634.56;;;21.85;43.90
67038;BME280;53940;53.204;6.590;2022-11-15T03:28:51;100640.75;;;21.86;43.82
67038;BME280;53940;53.204;6.590;2022-11-15T03:32:00;100630.88;;;21.86;43.54
67038;BME280;53940;53.204;6.590;2022-11-15T03:35:09;100630.59;;;21.89;43.67
67038;BME280;53940;53.204;6.590;2022-11-15T03:38:19;100630.59;;;21.89;43.61
67038;BME280;53940;53.204;6.590;2022-11-15T03:41:34;100624.22;;;21.90;43.30
67038;BME280;53940;53.204;6.590;2022-11-15T03:44:51;100624.06;;;21.92;43.37
67038;BME280;53940;53.204;6.590;2022-11-15T03:47:58;100632.97;;;21.92;43.46
67038;BME280;53940;53.204;6.590;2022-11-15T03:51:00;100628.25;;;21.94;43.50
67038;BME280;53940;53.204;6.590;2022-11-15T03:54:03;100621.94;;;21.96;43.33
67038;BME280;53940;53.204;6.590;2022-11-15T03:57:04;100618.41;;;21.95;43.34
67038;BME280;53940;53.204;6.590;2022-11-15T04:00:05;100607.50;;;21.97;43.22
67038;BME280;53940;53.204;6.590;2022-11-15T04:03:05;100607.50;;;21.97;43.40
67038;BME280;53940;53.204;6.590;2022-11-15T04:06:07;100606.50;;;21.98;43.32
67038;BME280;53940;53.204;6.590;2022-11-15T04:09:07;100606.50;;;21.98;43.22
67038;BME280;53940;53.204;6.590;2022-11-15T04:12:08;100607.19;;;22.00;43.07
67038;BME280;53940;53.204;6.590;2022-11-15T04:15:13;100604.50;;;22.00;42.91
67038;BME280;53940;53.204;6.590;2022-11-15T04:18:14;100599.00;;;22.01;43.03
67038;BME280;53940;53.204;6.590;2022-11-15T04:21:15;100599.00;;;22.01;43.20
67038;BME280;53940;53.204;6.590;2022-11-15T04:24:47;100602.53;;;22.02;43.17
67038;BME280;53940;53.204;6.590;2022-11-15T04:27:48;100604.22;;;22.03;43.16
67038;BME280;53940;53.204;6.590;2022-11-15T04:30:48;100607.91;;;22.02;43.19
67038;BME280;53940;53.204;6.590;2022-11-15T04:33:48;100609.59;;;22.03;43.18
67038;BME280;53940;53.204;6.590;2022-11-15T04:36:49;100614.94;;;22.03;42.74
67038;BME280;53940;53.204;6.590;2022-11-15T04:40:07;100604.22;;;22.03;42.73
67038;BME280;53940;53.204;6.590;2022-11-15T04:43:08;100605.91;;;22.04;42.76
67038;BME280;53940;53.204;6.590;2022-11-15T04:46:08;100603.22;;;22.04;42.73
67038;BME280;53940;53.204;6.590;2022-11-15T04:49:08;100605.91;;;22.04;42.79
67038;BME280;53940;53.204;6.590;2022-11-15T04:52:09;100600.53;;;22.04;42.87
67038;BME280;53940;53.204;6.590;2022-11-15T04:55:10;100605.91;;;22.04;42.70
67038;BME280;53940;53.204;6.590;2022-11-15T04:58:10;100600.53;;;22.04;42.83
67038;BME280;53940;53.204;6.590;2022-11-15T05:01:13;100593.47;;;22.03;43.00
67038;BME280;53940;53.204;6.590;2022-11-15T05:04:16;100589.78;;;22.04;42.72
67038;BME280;53940;53.204;6.590;2022-11-15T05:07:19;100595.16;;;22.04;43.04
67038;BME280;53940;53.204;6.590;2022-11-15T05:10:19;100591.63;;;22.03;43.10
67038;BME280;53940;53.204;6.590;2022-11-15T05:13:20;100595.16;;;22.04;42.98
67038;BME280;53940;53.204;6.590;2022-11-15T05:16:20;100594.16;;;22.05;42.72
67038;BME280;53940;53.204;6.590;2022-11-15T05:19:20;100589.78;;;22.04;42.77
67038;BME280;53940;53.204;6.590;2022-11-15T05:22:21;100588.13;;;22.03;43.13
67038;BME280;53940;53.204;6.590;2022-11-15T05:25:22;100589.78;;;22.04;43.14
67038;BME280;53940;53.204;6.590;2022-11-15T05:28:22;100587.13;;;22.04;43.03
67038;BME280;53940;53.204;6.590;2022-11-15T05:31:23;100578.22;;;22.03;43.04
67038;BME280;53940;53.204;6.590;2022-11-15T05:34:24;100580.06;;;22.03;42.70
67038;BME280;53940;53.204;6.590;2022-11-15T05:37:25;100580.06;;;22.03;43.04
67038;BME280;53940;53.204;6.590;2022-11-15T05:40:27;100572.00;;;22.03;42.83
67038;BME280;53940;53.204;6.590;2022-11-15T05:43:31;100586.44;;;22.02;43.11
67038;BME280;53940;53.204;6.590;2022-11-15T05:46:38;100588.25;;;22.01;42.71
67038;BME280;53940;53.204;6.590;2022-11-15T05:49:42;100587.25;;;22.02;42.98
67038;BME280;53940;53.204;6.590;2022-11-15T05:52:44;100590.09;;;22.01;43.10
67038;BME280;53940;53.204;6.590;2022-11-15T05:55:46;100590.94;;;22.01;42.89
67038;BME280;53940;53.204;6.590;2022-11-15T05:58:46;100590.09;;;22.01;42.88
67038;BME280;53940;53.204;6.590;2022-11-15T06:01:47;100595.47;;;22.01;43.38
67038;BME280;53940;53.204;6.590;2022-11-15T06:04:47;100604.50;;;22.00;42.92
67038;BME280;53940;53.204;6.590;2022-11-15T06:07:47;100604.50;;;22.00;42.78
67038;BME280;53940;53.204;6.590;2022-11-15T06:10:48;100604.50;;;22.00;42.97
67038;BME280;53940;53.204;6.590;2022-11-15T06:13:48;100605.50;;;21.99;42.83
67038;BME280;53940;53.204;6.590;2022-11-15T06:16:48;100609.88;;;22.00;42.86
67038;BME280;53940;53.204;6.590;2022-11-15T06:19:49;100610.88;;;21.99;43.04
67038;BME280;53940;53.204;6.590;2022-11-15T06:22:49;100606.50;;;21.98;43.15
67038;BME280;53940;53.204;6.590;2022-11-15T06:25:49;100611.88;;;21.98;42.86
67038;BME280;53940;53.204;6.590;2022-11-15T06:28:50;100610.19;;;21.97;43.05
67038;BME280;53940;53.204;6.590;2022-11-15T06:31:50;100617.25;;;21.98;42.86
67038;BME280;53940;53.204;6.590;2022-11-15T06:34:50;100618.25;;;21.97;42.97
67038;BME280;53940;53.204;6.590;2022-11-15T06:37:53;100619.25;;;21.96;43.17
67038;BME280;53940;53.204;6.590;2022-11-15T06:40:53;100629.13;;;21.95;42.99
67038;BME280;53940;53.204;6.590;2022-11-15T06:43:54;100630.94;;;21.94;43.20
67038;BME280;53940;53.204;6.590;2022-11-15T06:46:54;100623.91;;;21.93;43.04
67038;BME280;53940;53.204;6.590;2022-11-15T06:49:54;100626.59;;;21.93;43.25
67038;BME280;53940;53.204;6.590;2022-11-15T06:52:54;100625.75;;;21.93;43.11
67038;BME280;53940;53.204;6.590;2022-11-15T06:55:59;100621.38;;;21.92;43.02
67038;BME280;53940;53.204;6.590;2022-11-15T06:59:00;100627.59;;;21.92;43.33
67038;BME280;53940;53.204;6.590;2022-11-15T07:02:01;100638.31;;;21.92;43.37
67038;BME280;53940;53.204;6.590;2022-11-15T07:05:01;100629.41;;;21.92;43.26
67038;BME280;53940;53.204;6.590;2022-11-15T07:08:02;100639.31;;;21.91;43.25
67038;BME280;53940;53.204;6.590;2022-11-15T07:11:05;100633.09;;;21.91;43.35
67038;BME280;53940;53.204;6.590;2022-11-15T07:14:06;100641.31;;;21.89;43.30
67038;BME280;53940;53.204;6.590;2022-11-15T07:17:07;100635.97;;;21.89;43.24
67038;BME280;53940;53.204;6.590;2022-11-15T07:20:07;100632.56;;;21.87;43.38
67038;BME280;53940;53.204;6.590;2022-11-15T07:23:08;100648.50;;;21.89;43.12
67038;BME280;53940;53.204;6.590;2022-11-15T07:26:08;100644.97;;;21.88;43.12
67038;BME280;53940;53.204;6.590;2022-11-15T07:29:09;100637.94;;;21.87;43.50
67038;BME280;53940;53.204;6.590;2022-11-15T07:32:09;100653.19;;;21.87;43.43
67038;BME280;53940;53.204;6.590;2022-11-15T07:35:10;100648.81;;;21.86;43.19
67038;BME280;53940;53.204;6.590;2022-11-15T07:38:10;100647.97;;;21.85;43.27
67038;BME280;53940;53.204;6.590;2022-11-15T07:41:10;100647.13;;;21.85;43.51
67038;BME280;53940;53.204;6.590;2022-11-15T07:44:11;100648.97;;;21.84;43.25
67038;BME280;53940;53.204;6.590;2022-11-15T07:47:11;100647.13;;;21.85;43.42
67038;BME280;53940;53.204;6.590;2022-11-15T07:50:11;100652.66;;;21.83;43.47
67038;BME280;53940;53.204;6.590;2022-11-15T07:53:12;100652.66;;;21.83;43.43
67038;BME280;53940;53.204;6.590;2022-11-15T07:56:12;100652.66;;;21.83;43.43
67038;BME280;53940;53.204;6.590;2022-11-15T07:59:13;100652.66;;;21.83;43.48
67038;BME280;53940;53.204;6.590;2022-11-15T08:02:13;100649.97;;;21.83;43.49
67038;BME280;53940;53.204;6.590;2022-11-15T08:05:13;100650.94;;;21.82;43.65
67038;BME280;53940;53.204;6.590;2022-11-15T08:08:14;100649.97;;;21.83;43.44
67038;BME280;53940;53.204;6.590;2022-11-15T08:11:14;100651.81;;;21.83;43.51
67038;BME280;53940;53.204;6.590;2022-11-15T08:14:15;100646.44;;;21.83;43.54
67038;BME280;53940;53.204;6.590;2022-11-15T08:17:15;100652.66;;;21.83;43.82
67038;BME280;53940;53.204;6.590;2022-11-15T08:20:16;100652.66;;;21.83;43.57
67038;BME280;53940;53.204;6.590;2022-11-15T08:23:16;100658.03;;;21.83;43.89
67038;BME280;53940;53.204;6.590;2022-11-15T08:26:16;100657.16;;;21.83;43.57
67038;BME280;53940;53.204;6.590;2022-11-15T08:29:17;100649.25;;;21.81;43.84
67038;BME280;53940;53.204;6.590;2022-11-15T08:32:17;100659.16;;;21.80;43.78
67038;BME280;53940;53.204;6.590;2022-11-15T08:35:18;100649.41;;;21.79;43.63
67038;BME280;53940;53.204;6.590;2022-11-15T08:38:19;100641.38;;;21.79;43.86
67038;BME280;53940;53.204;6.590;2022-11-15T08:41:33;100648.72;;;21.77;43.83
67038;BME280;53940;53.204;6.590;2022-11-15T08:44:35;100653.28;;;21.77;44.12
67038;BME280;53940;53.204;6.590;2022-11-15T08:47:36;100648.88;;;21.76;43.88
67038;BME280;53940;53.204;6.590;2022-11-15T08:50:36;100652.56;;;21.75;43.90
67038;BME280;53940;53.204;6.590;2022-11-15T08:53:36;100644.50;;;21.75;44.02
67038;BME280;53940;53.204;6.590;2022-11-15T08:56:37;100635.78;;;21.73;43.99
67038;BME280;53940;53.204;6.590;2022-11-15T08:59:37;100634.78;;;21.74;43.98
67038;BME280;53940;53.204;6.590;2022-11-15T09:02:39;100632.09;;;21.74;44.02
67038;BME280;53940;53.204;6.590;2022-11-15T09:05:39;100631.41;;;21.72;44.00
67038;BME280;53940;53.204;6.590;2022-11-15T09:08:39;100628.75;;;21.72;44.33
67038;BME280;53940;53.204;6.590;2022-11-15T09:11:40;100622.38;;;21.73;44.31
67038;BME280;53940;53.204;6.590;2022-11-15T09:14:40;100613.47;;;21.72;44.25
67038;BME280;53940;53.204;6.590;2022-11-15T09:17:41;100617.00;;;21.73;44.21
67038;BME280;53940;53.204;6.590;2022-11-15T09:20:41;100618.00;;;21.72;44.24
67038;BME280;53940;53.204;6.590;2022-11-15T09:23:42;100618.00;;;21.72;44.34
67038;BME280;53940;53.204;6.590;2022-11-15T09:26:43;100620.69;;;21.72;44.32
67038;BME280;53940;53.204;6.590;2022-11-15T09:29:43;100626.06;;;21.72;44.18
67038;BME280;53940;53.204;6.590;2022-11-15T09:32:43;100623.38;;;21.72;44.46
67038;BME280;53940;53.204;6.590;2022-11-15T09:35:44;100625.34;;;21.70;44.44
67038;BME280;53940;53.204;6.590;2022-11-15T09:38:44;100627.06;;;21.71;44.56
67038;BME280;53940;53.204;6.590;2022-11-15T09:45:32;100612.91;;;21.68;44.73
67038;BME280;53940;53.204;6.590;2022-11-15T09:48:49;100619.97;;;21.70;44.48
67038;BME280;53940;53.204;6.590;2022-11-15T09:51:53;100620.94;;;21.68;44.29
67038;BME280;53940;53.204;6.590;2022-11-15T09:54:54;100623.63;;;21.68;44.41
67038;BME280;53940;53.204;6.590;2022-11-15T09:58:07;100615.59;;;21.68;44.62
67038;BME280;53940;53.204;6.590;2022-11-15T10:01:17;100608.41;;;21.69;44.51
67038;BME280;53940;53.204;6.590;2022-11-15T10:04:21;100619.25;;;21.67;44.51
67038;BME280;53940;53.204;6.590;2022-11-15T10:07:48;100613.91;;;21.67;44.70
67038;BME280;53940;53.204;6.590;2022-11-15T10:10:58;100609.53;;;21.66;44.71
67038;BME280;53940;53.204;6.590;2022-11-15T10:17:21;100598.81;;;21.66;44.73
67038;BME280;53940;53.204;6.590;2022-11-15T10:20:29;100594.28;;;21.67;44.59
67038;BME280;53940;53.204;6.590;2022-11-15T10:23:31;100585.41;;;21.66;44.62
67038;BME280;53940;53.204;6.590;2022-11-15T10:26:32;100593.44;;;21.66;44.52
67038;BME280;53940;53.204;6.590;2022-11-15T10:29:32;100584.41;;;21.67;44.83
67038;BME280;53940;53.204;6.590;2022-11-15T10:32:34;100583.53;;;21.67;44.96
67038;BME280;53940;53.204;6.590;2022-11-15T10:35:36;100579.03;;;21.67;44.91
67038;BME280;53940;53.204;6.590;2022-11-15T10:41:49;100574.53;;;21.68;44.70
67038;BME280;53940;53.204;6.590;2022-11-15T10:44:49;100574.69;;;21.66;44.86
67038;BME280;53940;53.204;6.590;2022-11-15T10:47:50;100564.94;;;21.65;44.99
67038;BME280;53940;53.204;6.590;2022-11-15T10:50:51;100562.25;;;21.65;44.91
67038;BME280;53940;53.204;6.590;2022-11-15T10:53:53;100555.22;;;21.64;45.02
67038;BME280;53940;53.204;6.590;2022-11-15T10:56:55;100552.53;;;21.64;44.63
67038;BME280;53940;53.204;6.590;2022-11-15T11:00:47;100550.81;;;21.63;44.83
67038;BME280;53940;53.204;6.590;2022-11-15T11:03:36;100547.31;;;21.63;44.97
67038;BME280;53940;53.204;6.590;2022-11-15T11:10:20;100551.81;;;21.62;45.15
67038;BME280;53940;53.204;6.590;2022-11-15T11:13:26;100548.31;;;21.62;44.86
67038;BME280;53940;53.204;6.590;2022-11-15T11:16:41;100544.78;;;21.61;45.01
67038;BME280;53940;53.204;6.590;2022-11-15T11:20:12;100544.78;;;21.61;44.87
67038;BME280;53940;53.204;6.590;2022-11-15T11:23:44;100542.09;;;21.61;45.08
67038;BME280;53940;53.204;6.590;2022-11-15T11:26:57;100540.44;;;21.60;45.16
67038;BME280;53940;53.204;6.590;2022-11-15T11:30:19;100535.06;;;21.60;44.95
67038;BME280;53940;53.204;6.590;2022-11-15T11:33:21;100535.06;;;21.60;45.08
67038;BME280;53940;53.204;6.590;2022-11-15T11:36:45;100535.88;;;21.61;45.20
67038;BME280;53940;53.204;6.590;2022-11-15T11:40:39;100525.00;;;21.62;45.01
67038;BME280;53940;53.204;6.590;2022-11-15T11:43:56;100522.34;;;21.62;45.02
67038;BME280;53940;53.204;6.590;2022-11-15T11:47:06;100524.00;;;21.63;44.86
67038;BME280;53940;53.204;6.590;2022-11-15T11:50:17;100524.53;;;21.67;45.09
67038;BME280;53940;53.204;6.590;2022-11-15T11:53:46;100515.69;;;21.66;45.10
67038;BME280;53940;53.204;6.590;2022-11-15T11:56:50;100510.03;;;21.70;44.84
67038;BME280;53940;53.204;6.590;2022-11-15T12:00:00;100514.41;;;21.71;45.10
67038;BME280;53940;53.204;6.590;2022-11-15T12:03:11;100517.09;;;21.71;45.11
67038;BME280;53940;53.204;6.590;2022-11-15T12:06:35;100519.78;;;21.71;45.16
67038;BME280;53940;53.204;6.590;2022-11-15T12:09:51;100512.69;;;21.70;45.13
67038;BME280;53940;53.204;6.590;2022-11-15T12:13:16;100518.91;;;21.70;45.05
67038;BME280;53940;53.204;6.590;2022-11-15T12:16:27;100513.56;;;21.70;45.60
67038;BME280;53940;53.204;6.590;2022-11-15T12:19:29;100505.38;;;21.72;45.63
67038;BME280;53940;53.204;6.590;2022-11-15T12:22:59;100502.69;;;21.72;46.04
67038;BME280;53940;53.204;6.590;2022-11-15T12:26:05;100502.50;;;21.73;45.93
67038;BME280;53940;53.204;6.590;2022-11-15T12:29:31;100498.00;;;21.74;46.37
67038;BME280;53940;53.204;6.590;2022-11-15T12:32:35;100499.69;;;21.75;46.14
67038;BME280;53940;53.204;6.590;2022-11-15T12:35:40;100493.63;;;21.73;46.30
67038;BME280;53940;53.204;6.590;2022-11-15T12:39:02;100494.31;;;21.75;46.80
67038;BME280;53940;53.204;6.590;2022-11-15T12:45:24;100493.31;;;21.76;46.77
67038;BME280;53940;53.204;6.590;2022-11-15T12:54:52;100487.94;;;21.76;46.47
67038;BME280;53940;53.204;6.590;2022-11-15T12:57:52;100485.25;;;21.76;46.66
67038;BME280;53940;53.204;6.590;2022-11-15T13:00:53;100492.34;;;21.77;46.44
67038;BME280;53940;53.204;6.590;2022-11-15T13:10:34;100483.28;;;21.78;46.70
67038;BME280;53940;53.204;6.590;2022-11-15T13:13:44;100477.91;;;21.78;46.83
67038;BME280;53940;53.204;6.590;2022-11-15T13:16:46;100467.19;;;21.78;46.29
67038;BME280;53940;53.204;6.590;2022-11-15T13:19:58;100469.88;;;21.78;46.49
67038;BME280;53940;53.204;6.590;2022-11-15T13:26:09;100448.41;;;21.78;46.42
67038;BME280;53940;53.204;6.590;2022-11-15T13:29:16;100456.47;;;21.78;46.47
67038;BME280;53940;53.204;6.590;2022-11-15T13:32:17;100459.16;;;21.78;46.30
67038;BME280;53940;53.204;6.590;2022-11-15T13:35:21;100446.75;;;21.77;46.46
67038;BME280;53940;53.204;6.590;2022-11-15T13:41:29;100448.56;;;21.76;46.33
67038;BME280;53940;53.204;6.590;2022-11-15T13:44:32;100441.53;;;21.75;46.36
67038;BME280;53940;53.204;6.590;2022-11-15T13:47:32;100435.16;;;21.76;46.26
67038;BME280;53940;53.204;6.590;2022-11-15T13:50:36;100431.63;;;21.76;46.45
67038;BME280;53940;53.204;6.590;2022-11-15T13:53:40;100430.78;;;21.75;46.42
67038;BME280;53940;53.204;6.590;2022-11-15T13:56:55;100421.91;;;21.75;46.42
67038;BME280;53940;53.204;6.590;2022-11-15T14:03:25;100414.69;;;21.75;46.70
67038;BME280;53940;53.204;6.590;2022-11-15T14:06:28;100410.16;;;21.76;46.55
67038;BME280;53940;53.204;6.590;2022-11-15T14:09:32;100405.81;;;21.75;46.39
67038;BME280;53940;53.204;6.590;2022-11-15T14:12:35;100399.63;;;21.74;46.56
67038;BME280;53940;53.204;6.590;2022-11-15T14:15:37;100398.75;;;21.74;46.45
67038;BME280;53940;53.204;6.590;2022-11-15T14:18:45;100391.56;;;21.74;46.58
67038;BME280;53940;53.204;6.590;2022-11-15T14:22:18;100384.50;;;21.73;46.79
67038;BME280;53940;53.204;6.590;2022-11-15T14:25:23;100380.00;;;21.74;46.50
67038;BME280;53940;53.204;6.590;2022-11-15T14:31:24;100373.94;;;21.72;46.41
67038;BME280;53940;53.204;6.590;2022-11-15T14:34:25;100376.63;;;21.72;46.55
67038;BME280;53940;53.204;6.590;2022-11-15T14:37:32;100374.09;;;21.70;46.69
67038;BME280;53940;53.204;6.590;2022-11-15T14:40:34;100374.97;;;21.71;46.58
67038;BME280;53940;53.204;6.590;2022-11-15T14:43:35;100371.53;;;21.68;46.70
67038;BME280;53940;53.204;6.590;2022-11-15T14:46:35;100367.88;;;21.70;46.39
67038;BME280;53940;53.204;6.590;2022-11-15T14:49:35;100366.19;;;21.68;46.37
67038;BME280;53940;53.204;6.590;2022-11-15T14:52:35;100370.56;;;21.70;46.39
67038;BME280;53940;53.204;6.590;2022-11-15T14:55:36;100371.53;;;21.68;46.70
67038;BME280;53940;53.204;6.590;2022-11-15T14:58:36;100371.53;;;21.68;46.63
67038;BME280;53940;53.204;6.590;2022-11-15T15:01:37;100376.91;;;21.68;46.74
67038;BME280;53940;53.204;6.590;2022-11-15T15:04:37;100372.53;;;21.67;46.35
67038;BME280;53940;53.204;6.590;2022-11-15T15:07:38;100365.50;;;21.66;46.41
67038;BME280;53940;53.204;6.590;2022-11-15T15:10:43;100368.19;;;21.66;46.44
67038;BME280;53940;53.204;6.590;2022-11-15T15:13:44;100361.16;;;21.65;46.47
67038;BME280;53940;53.204;6.590;2022-11-15T15:16:44;100358.63;;;21.64;46.53
67038;BME280;53940;53.204;6.590;2022-11-15T15:19:45;100354.09;;;21.64;46.44
67038;BME280;53940;53.204;6.590;2022-11-15T15:22:45;100355.25;;;21.62;46.31
67038;BME280;53940;53.204;6.590;2022-11-15T15:25:46;100354.41;;;21.61;46.40
67038;BME280;53940;53.204;6.590;2022-11-15T15:28:48;100342.00;;;21.60;46.14
67038;BME280;53940;53.204;6.590;2022-11-15T15:31:51;100343.00;;;21.59;46.37
67038;BME280;53940;53.204;6.590;2022-11-15T15:34:51;100333.28;;;21.58;46.20
67038;BME280;53940;53.204;6.590;2022-11-15T15:37:51;100328.06;;;21.57;46.49
67038;BME280;53940;53.204;6.590;2022-11-15T15:40:52;100324.53;;;21.56;46.38
67038;BME280;53940;53.204;6.590;2022-11-15T15:43:52;100307.94;;;21.52;46.35
67038;BME280;53940;53.204;6.590;2022-11-15T15:46:53;100307.78;;;21.54;46.22
67038;BME280;53940;53.204;6.590;2022-11-15T15:49:53;100300.88;;;21.51;46.39
67038;BME280;53940;53.204;6.590;2022-11-15T15:52:59;100299.22;;;21.50;46.25
67038;BME280;53940;53.204;6.590;2022-11-15T15:55:59;100298.34;;;21.50;46.19
67038;BME280;53940;53.204;6.590;2022-11-15T15:59:00;100296.69;;;21.49;46.17
67038;BME280;53940;53.204;6.590;2022-11-15T16:02:00;100293.16;;;21.48;46.05
67038;BME280;53940;53.204;6.590;2022-11-15T16:05:00;100284.28;;;21.48;46.38
67038;BME280;53940;53.204;6.590;2022-11-15T16:08:01;100278.91;;;21.48;46.33
67038;BME280;53940;53.204;6.590;2022-11-15T16:11:01;100281.59;;;21.48;46.18
67038;BME280;53940;53.204;6.590;2022-11-15T16:14:03;100278.06;;;21.47;46.28
67038;BME280;53940;53.204;6.590;2022-11-15T16:17:04;100281.75;;;21.46;46.34
67038;BME280;53940;53.204;6.590;2022-11-15T16:20:04;100271.88;;;21.47;46.35
67038;BME280;53940;53.204;6.590;2022-11-15T16:23:07;100273.72;;;21.46;46.39
67038;BME280;53940;53.204;6.590;2022-11-15T16:26:19;100268.50;;;21.45;46.60
67038;BME280;53940;53.204;6.590;2022-11-15T16:29:20;100268.50;;;21.45;46.30
67038;BME280;53940;53.204;6.590;2022-11-15T16:32:20;100260.47;;;21.45;46.18
67038;BME280;53940;53.204;6.590;2022-11-15T16:35:21;100257.78;;;21.45;46.57
67038;BME280;53940;53.204;6.590;2022-11-15T16:38:21;100249.91;;;21.43;46.28
67038;BME280;53940;53.204;6.590;2022-11-15T16:41:21;100256.94;;;21.44;46.36
67038;BME280;53940;53.204;6.590;2022-11-15T16:44:22;100256.09;;;21.44;46.63
67038;BME280;53940;53.204;6.590;2022-11-15T16:47:23;100243.69;;;21.43;46.29
67038;BME280;53940;53.204;6.590;2022-11-15T16:50:26;100242.03;;;21.41;46.29
67038;BME280;53940;53.204;6.590;2022-11-15T16:53:27;100247.38;;;21.41;46.42
67038;BME280;53940;53.204;6.590;2022-11-15T16:56:29;100235.00;;;21.40;46.60
67038;BME280;53940;53.204;6.590;2022-11-15T16:59:29;100240.34;;;21.40;46.39
67038;BME280;53940;53.204;6.590;2022-11-15T17:02:32;100233.31;;;21.39;46.70